Time;durP1;ratioP1;P1;durP2;ratioP2;P2;SDS_P1;SDS_P2;PMS_P1;PMS_P2;Temp;Humidity;BMP_temperature;BMP_pressure;BME280_temperature;BME280_humidity;BME280_pressure;Samples;Min_cycle;Max_cycle;Signal;HPM_P1;HPM_P2
2023/03/05 00:00:56;;;;;;;;;;;;;;;;;;5060954;28;19923;-75
2023/03/05 00:03:42;;;;;;;;;;;;;;;;;;5058092;28;19939;-79
2023/03/05 00:06:29;;;;;;;;;;;;;;;;;;5046920;28;19930;-74
2023/03/05 00:09:15;;;;;;;;;;;;;;;;;;5052634;28;19917;-76
2023/03/05 00:12:02;;;;;;;;;;;;;;;;;;5052674;28;19916;-75
2023/03/05 00:14:48;;;;;;;;;;;;;;;;;;5048400;28;19945;-74
2023/03/05 00:17:35;;;;;;;;;;;;;;;;;;5058508;28;19920;-79
2023/03/05 00:20:21;;;;;;;;;;;;;;;;;;5053064;28;19916;-75
2023/03/05 00:23:08;;;;;;;;;;;;;;;;;;5044453;28;19921;-79
2023/03/05 00:25:54;;;;;;;;;;;;;;;;;;5044472;28;20280;-78
2023/03/05 00:28:41;;;;;;;;;;;;;;;;;;5062152;28;19924;-75
2023/03/05 00:31:29;;;;;;;;;;;;;;;;;;5051939;28;19917;-76
2023/03/05 00:34:15;;;;;;;;;;;;;;;;;;5060181;28;19920;-79
2023/03/05 00:37:02;;;;;;;;;;;;;;;;;;5056183;28;19925;-75
2023/03/05 00:39:48;;;;;;;;;;;;;;;;;;5056226;28;20057;-75
2023/03/05 00:42:37;;;;;;;;;;;;;;;;;;5065307;28;19931;-76
2023/03/05 00:45:23;;;;;;;;;;;;;;;;;;5064961;28;19925;-76
2023/03/05 00:48:10;;;;;;;;;;;;;;;;;;5052282;28;19917;-76
2023/03/05 00:50:56;;;;;;;;;;;;;;;;;;5065778;28;19917;-75
2023/03/05 00:53:43;;;;;;;;;;;;;;;;;;5046404;28;19928;-74
2023/03/05 00:56:29;;;;;;;;;;;;;;;;;;5063850;28;19994;-75
2023/03/05 00:59:16;;;;;;;;;;;;;;;;;;5058431;28;19927;-75
2023/03/05 01:02:02;;;;;;;;;;;;;;;;;;5061077;28;19920;-75
2023/03/05 01:04:49;;;;;;;;;;;;;;;;;;5056156;28;19952;-80
2023/03/05 01:07:35;;;;;;;;;;;;;;;;;;5057846;28;19921;-75
2023/03/05 01:10:22;;;;;;;;;;;;;;;;;;5053703;28;19924;-73
2023/03/05 01:13:08;;;;;;;;;;;;;;;;;;5063732;28;19921;-74
2023/03/05 01:15:55;;;;;;;;;;;;;;;;;;5057019;28;19928;-74
2023/03/05 01:18:41;;;;;;;;;;;;;;;;;;5066068;28;20293;-74
2023/03/05 01:21:28;;;;;;;;;;;;;;;;;;5055240;28;19920;-74
2023/03/05 01:24:14;;;;;;;;;;;;;;;;;;5064995;28;19933;-74
2023/03/05 01:27:01;;;;;;;;;;;;;;;;;;5057917;28;19924;-73
2023/03/05 01:29:47;;;;;;;;;;;;;;;;;;5070066;28;19917;-74
2023/03/05 01:32:34;;;;;;;;;;;;;;;;;;5055076;28;19921;-74
2023/03/05 01:35:20;;;;;;;;;;;;;;;;;;5056052;28;19924;-74
2023/03/05 01:38:07;;;;;;;;;;;;;;;;;;5054204;28;20364;-74
2023/03/05 01:40:53;;;;;;;;;;;;;;;;;;5067416;28;19919;-74
2023/03/05 01:43:40;;;;;;;;;;;;;;;;;;5068285;28;20315;-74
2023/03/05 01:46:26;;;;;;;;;;;;;;;;;;5060853;28;19925;-74
2023/03/05 01:49:13;;;;;;;;;;;;;;;;;;5065150;28;19982;-74
2023/03/05 01:51:59;;;;;;;;;;;;;;;;;;5077253;28;19921;-74
2023/03/05 01:54:46;;;;;;;;;;;;;;;;;;5053909;28;20398;-74
2023/03/05 01:57:32;;;;;;;;;;;;;;;;;;5054434;28;19920;-74
2023/03/05 02:00:19;;;;;;;;;;;;;;;;;;5058409;28;19928;-74
2023/03/05 02:03:05;;;;;;;;;;;;;;;;;;5071357;28;19927;-74
2023/03/05 02:05:52;;;;;;;;;;;;;;;;;;5060091;28;20294;-73
2023/03/05 02:08:39;;;;;;;;;;;;;;;;;;5066010;28;19927;-74
2023/03/05 02:11:25;;;;;;;;;;;;;;;;;;5065529;28;19916;-74
2023/03/05 02:14:11;;;;;;;;;;;;;;;;;;5066040;28;19932;-74
2023/03/05 02:16:58;;;;;;;;;;;;;;;;;;5056732;28;20280;-74
2023/03/05 02:19:44;;;;;;;;;;;;;;;;;;5056838;28;19923;-74
2023/03/05 02:22:31;;;;;;;;;;;;;;;;;;5066321;28;19920;-74
2023/03/05 02:25:17;;;;;;;;;;;;;;;;;;5063413;28;19927;-75
2023/03/05 02:28:04;;;;;;;;;;;;;;;;;;5058419;28;19923;-74
2023/03/05 02:30:50;;;;;;;;;;;;;;;;;;5069977;28;19923;-74
2023/03/05 02:33:37;;;;;;;;;;;;;;;;;;5058970;28;19916;-74
2023/03/05 02:36:23;;;;;;;;;;;;;;;;;;5064748;28;20520;-75
2023/03/05 02:39:10;;;;;;;;;;;;;;;;;;5063473;28;19927;-74
2023/03/05 02:41:56;;;;;;;;;;;;;;;;;;5067906;28;19916;-74
2023/03/05 02:44:43;;;;;;;;;;;;;;;;;;5043530;28;19932;-74
2023/03/05 02:47:29;;;;;;;;;;;;;;;;;;5065862;28;19938;-75
2023/03/05 02:50:16;;;;;;;;;;;;;;;;;;5057269;28;19916;-75
2023/03/05 02:53:02;;;;;;;;;;;;;;;;;;5063241;28;20272;-75
2023/03/05 02:55:49;;;;;;;;;;;;;;;;;;5035309;28;19920;-75
2023/03/05 02:58:35;;;;;;;;;;;;;;;;;;5060684;28;19936;-77
2023/03/05 03:01:22;;;;;;;;;;;;;;;;;;5057792;28;19979;-75
2023/03/05 03:04:08;;;;;;;;;;;;;;;;;;5059541;28;19924;-74
2023/03/05 03:06:54;;;;;;;;;;;;;;;;;;5066850;28;19927;-74
2023/03/05 03:09:44;;;;;;;;;;;;;;;;;;5063361;28;20292;-75
2023/03/05 03:12:30;;;;;;;;;;;;;;;;;;5073762;28;19916;-75
2023/03/05 03:15:17;;;;;;;;;;;;;;;;;;5067055;28;20310;-75
2023/03/05 03:18:04;;;;;;;;;;;;;;;;;;5073191;28;19919;-74
2023/03/05 03:20:50;;;;;;;;;;;;;;;;;;5067136;28;19913;-73
2023/03/05 03:23:36;;;;;;;;;;;;;;;;;;5056869;28;19921;-74
2023/03/05 03:26:23;;;;;;;;;;;;;;;;;;5049773;28;19939;-74
2023/03/05 03:29:09;;;;;;;;;;;;;;;;;;5062757;28;19944;-74
2023/03/05 03:31:56;;;;;;;;;;;;;;;;;;5054333;28;19923;-74
2023/03/05 03:34:43;;;;;;;;;;;;;;;;;;5069569;28;19917;-75
2023/03/05 03:37:30;;;;;;;;;;;;;;;;;;5059140;28;20390;-74
2023/03/05 03:40:16;;;;;;;;;;;;;;;;;;5065905;28;19928;-74
2023/03/05 03:43:02;;;;;;;;;;;;;;;;;;5057666;28;19947;-74
2023/03/05 03:45:49;;;;;;;;;;;;;;;;;;5073921;28;19924;-74
2023/03/05 03:48:35;;;;;;;;;;;;;;;;;;5048690;28;19925;-74
2023/03/05 03:51:22;;;;;;;;;;;;;;;;;;5065377;28;19920;-75
2023/03/05 03:54:08;;;;;;;;;;;;;;;;;;5043913;28;19920;-76
2023/03/05 03:56:55;;;;;;;;;;;;;;;;;;5052854;28;19921;-74
2023/03/05 03:59:44;;;;;;;;;;;;;;;;;;5053388;28;19972;-74
2023/03/05 04:02:30;;;;;;;;;;;;;;;;;;5049164;28;19913;-74
2023/03/05 04:05:17;;;;;;;;;;;;;;;;;;5051099;28;19924;-75
2023/03/05 04:08:03;;;;;;;;;;;;;;;;;;5050561;28;19921;-75
2023/03/05 04:10:50;;;;;;;;;;;;;;;;;;5064205;28;20546;-75
2023/03/05 04:13:36;;;;;;;;;;;;;;;;;;5067159;28;19928;-75
2023/03/05 04:16:23;;;;;;;;;;;;;;;;;;5061261;28;19913;-74
2023/03/05 04:19:09;;;;;;;;;;;;;;;;;;5056426;28;19940;-75
2023/03/05 04:21:58;;;;;;;;;;;;;;;;;;5055122;28;24199;-74
2023/03/05 04:24:44;;;;;;;;;;;;;;;;;;5061255;28;19924;-74
2023/03/05 04:27:31;;;;;;;;;;;;;;;;;;5057672;28;19943;-73
2023/03/05 04:30:17;;;;;;;;;;;;;;;;;;5067149;28;19924;-74
2023/03/05 04:33:04;;;;;;;;;;;;;;;;;;5066951;28;19939;-72
2023/03/05 04:35:51;;;;;;;;;;;;;;;;;;5067625;28;19931;-73
2023/03/05 04:38:37;;;;;;;;;;;;;;;;;;5060123;28;19912;-74
2023/03/05 04:41:24;;;;;;;;;;;;;;;;;;5057230;28;19917;-74
2023/03/05 04:44:10;;;;;;;;;;;;;;;;;;5063309;28;19931;-74
2023/03/05 04:46:57;;;;;;;;;;;;;;;;;;5049495;28;19927;-74
2023/03/05 04:49:43;;;;;;;;;;;;;;;;;;5063480;28;19976;-74
2023/03/05 04:52:30;;;;;;;;;;;;;;;;;;5069593;28;20367;-74
2023/03/05 04:55:16;;;;;;;;;;;;;;;;;;5060320;28;19928;-74
2023/03/05 04:58:03;;;;;;;;;;;;;;;;;;5071232;28;19913;-74
2023/03/05 05:00:49;;;;;;;;;;;;;;;;;;5054167;28;19923;-74
2023/03/05 05:03:36;;;;;;;;;;;;;;;;;;5055063;28;19920;-74
2023/03/05 05:06:22;;;;;;;;;;;;;;;;;;5052742;28;20284;-74
2023/03/05 05:09:09;;;;;;;;;;;;;;;;;;5059471;28;20402;-74
2023/03/05 05:11:55;;;;;;;;;;;;;;;;;;5047897;28;19916;-74
2023/03/05 05:14:42;;;;;;;;;;;;;;;;;;5069396;28;19961;-74
2023/03/05 05:17:29;;;;;;;;;;;;;;;;;;5081939;28;19913;-74
2023/03/05 05:20:16;;;;;;;;;;;;;;;;;;5050739;28;19921;-75
2023/03/05 05:23:02;;;;;;;;;;;;;;;;;;5048024;28;19919;-74
2023/03/05 05:25:49;;;;;;;;;;;;;;;;;;5048301;28;19947;-74
2023/03/05 05:28:37;;;;;;;;;;;;;;;;;;5058587;28;21525;-75
2023/03/05 05:31:23;;;;;;;;;;;;;;;;;;5065852;28;19916;-74
2023/03/05 05:34:10;;;;;;;;;;;;;;;;;;5060550;28;19917;-74
2023/03/05 05:36:56;;;;;;;;;;;;;;;;;;5056144;28;19916;-74
2023/03/05 05:39:48;;;;;;;;;;;;;;;;;;5045198;28;19917;-74
2023/03/05 05:42:35;;;;;;;;;;;;;;;;;;5045720;28;19916;-74
2023/03/05 05:45:21;;;;;;;;;;;;;;;;;;5058571;28;20456;-74
2023/03/05 05:48:08;;;;;;;;;;;;;;;;;;5064713;28;19917;-75
2023/03/05 05:50:54;;;;;;;;;;;;;;;;;;5065676;28;19917;-74
2023/03/05 05:53:41;;;;;;;;;;;;;;;;;;5061034;28;19922;-74
2023/03/05 05:56:28;;;;;;;;;;;;;;;;;;5053251;28;19920;-74
2023/03/05 05:59:14;;;;;;;;;;;;;;;;;;5055787;28;19916;-74
2023/03/05 06:02:01;;;;;;;;;;;;;;;;;;5050844;28;20489;-74
2023/03/05 06:04:47;;;;;;;;;;;;;;;;;;5063784;28;19928;-74
2023/03/05 06:07:34;;;;;;;;;;;;;;;;;;5069499;28;19912;-74
2023/03/05 06:10:20;;;;;;;;;;;;;;;;;;5067986;28;19924;-74
2023/03/05 06:13:07;;;;;;;;;;;;;;;;;;5057534;28;20318;-73
2023/03/05 06:15:53;;;;;;;;;;;;;;;;;;5053317;28;19936;-74
2023/03/05 06:18:40;;;;;;;;;;;;;;;;;;5075996;28;19912;-74
2023/03/05 06:21:26;;;;;;;;;;;;;;;;;;5059092;28;19924;-74
2023/03/05 06:24:13;;;;;;;;;;;;;;;;;;5054542;28;19920;-74
2023/03/05 06:26:59;;;;;;;;;;;;;;;;;;5059186;28;20047;-74
2023/03/05 06:29:46;;;;;;;;;;;;;;;;;;5066443;28;19917;-75
2023/03/05 06:32:32;;;;;;;;;;;;;;;;;;5054139;28;19944;-74
2023/03/05 06:35:19;;;;;;;;;;;;;;;;;;5061174;28;19921;-74
2023/03/05 06:38:05;;;;;;;;;;;;;;;;;;5061330;28;20428;-74
2023/03/05 06:40:52;;;;;;;;;;;;;;;;;;5061360;28;19920;-74
2023/03/05 06:43:38;;;;;;;;;;;;;;;;;;5065877;28;19927;-74
2023/03/05 06:46:25;;;;;;;;;;;;;;;;;;5054245;28;19929;-73
2023/03/05 06:49:11;;;;;;;;;;;;;;;;;;5059400;28;20026;-74
2023/03/05 06:51:58;;;;;;;;;;;;;;;;;;5060359;28;19913;-73
2023/03/05 06:54:45;;;;;;;;;;;;;;;;;;5059128;28;19920;-74
2023/03/05 06:57:31;;;;;;;;;;;;;;;;;;5060151;28;19916;-74
2023/03/05 07:00:18;;;;;;;;;;;;;;;;;;5053749;28;19932;-74
2023/03/05 07:03:04;;;;;;;;;;;;;;;;;;5061329;28;20291;-73
2023/03/05 07:05:50;;;;;;;;;;;;;;;;;;5058496;28;19932;-74
2023/03/05 07:08:37;;;;;;;;;;;;;;;;;;5055408;28;19917;-73
2023/03/05 07:11:24;;;;;;;;;;;;;;;;;;5053362;28;19928;-74
2023/03/05 07:14:10;;;;;;;;;;;;;;;;;;5062928;28;19944;-74
2023/03/05 07:16:57;;;;;;;;;;;;;;;;;;5057112;28;19920;-74
2023/03/05 07:19:43;;;;;;;;;;;;;;;;;;5054571;28;19916;-75
2023/03/05 07:22:30;;;;;;;;;;;;;;;;;;5053695;28;19928;-72
2023/03/05 07:25:20;;;;;;;;;;;;;;;;;;5059236;28;19932;-75
2023/03/05 07:28:06;;;;;;;;;;;;;;;;;;5056355;28;19924;-74
2023/03/05 07:30:53;;;;;;;;;;;;;;;;;;5045669;28;19936;-73
2023/03/05 07:33:39;;;;;;;;;;;;;;;;;;5060853;28;19925;-73
2023/03/05 07:36:26;;;;;;;;;;;;;;;;;;5057720;28;19931;-72
2023/03/05 07:39:12;;;;;;;;;;;;;;;;;;5059931;28;20288;-72
2023/03/05 07:42:02;;;;;;;;;;;;;;;;;;5056504;28;19920;-74
2023/03/05 07:44:49;;;;;;;;;;;;;;;;;;5062796;28;19934;-73
2023/03/05 07:47:35;;;;;;;;;;;;;;;;;;5043094;28;19923;-73
2023/03/05 07:50:21;;;;;;;;;;;;;;;;;;5058114;28;19927;-73
2023/03/05 07:53:08;;;;;;;;;;;;;;;;;;5052932;28;19927;-72
2023/03/05 07:55:54;;;;;;;;;;;;;;;;;;5053358;28;19917;-72
2023/03/05 07:58:41;;;;;;;;;;;;;;;;;;5049794;28;19928;-73
2023/03/05 08:01:27;;;;;;;;;;;;;;;;;;5054832;28;19927;-74
2023/03/05 08:04:14;;;;;;;;;;;;;;;;;;5055264;28;19970;-72
2023/03/05 08:07:00;;;;;;;;;;;;;;;;;;5054297;28;19923;-73
2023/03/05 08:09:47;;;;;;;;;;;;;;;;;;5055533;28;19920;-73
2023/03/05 08:12:33;;;;;;;;;;;;;;;;;;5057684;28;19920;-73
2023/03/05 08:15:20;;;;;;;;;;;;;;;;;;5043748;28;19996;-74
2023/03/05 08:18:06;;;;;;;;;;;;;;;;;;5054759;28;21272;-73
2023/03/05 08:20:53;;;;;;;;;;;;;;;;;;5053529;28;19921;-74
2023/03/05 08:23:39;;;;;;;;;;;;;;;;;;5052899;28;20376;-72
2023/03/05 08:26:26;;;;;;;;;;;;;;;;;;5052068;28;19924;-74
2023/03/05 08:29:12;;;;;;;;;;;;;;;;;;5053180;28;19921;-73
2023/03/05 08:31:59;;;;;;;;;;;;;;;;;;5054842;28;19917;-73
2023/03/05 08:34:45;;;;;;;;;;;;;;;;;;5051483;28;19928;-74
2023/03/05 08:37:32;;;;;;;;;;;;;;;;;;5055214;28;19921;-73
2023/03/05 08:40:19;;;;;;;;;;;;;;;;;;5055357;28;19920;-74
2023/03/05 08:43:06;;;;;;;;;;;;;;;;;;5058375;28;19927;-74
2023/03/05 08:45:52;;;;;;;;;;;;;;;;;;5050696;28;19937;-74
2023/03/05 08:48:39;;;;;;;;;;;;;;;;;;5048851;28;20398;-74
2023/03/05 08:51:25;;;;;;;;;;;;;;;;;;5052960;28;19958;-74
2023/03/05 08:54:12;;;;;;;;;;;;;;;;;;5053381;28;20395;-74
2023/03/05 08:56:58;;;;;;;;;;;;;;;;;;5053929;28;19927;-74
2023/03/05 08:59:45;;;;;;;;;;;;;;;;;;5051543;28;19921;-73
2023/03/05 09:02:31;;;;;;;;;;;;;;;;;;5049384;28;19950;-73
2023/03/05 09:05:18;;;;;;;;;;;;;;;;;;5057400;28;19939;-73
2023/03/05 09:08:04;;;;;;;;;;;;;;;;;;5053040;28;19927;-73
2023/03/05 09:10:51;;;;;;;;;;;;;;;;;;5055928;28;19920;-73
2023/03/05 09:13:37;;;;;;;;;;;;;;;;;;5055481;28;20296;-73
2023/03/05 09:16:24;;;;;;;;;;;;;;;;;;5056960;28;19916;-74
2023/03/05 09:19:11;;;;;;;;;;;;;;;;;;5057605;28;19927;-73
2023/03/05 09:21:58;;;;;;;;;;;;;;;;;;5055197;28;19921;-73
2023/03/05 09:24:44;;;;;;;;;;;;;;;;;;5053311;28;19931;-74
2023/03/05 09:27:31;;;;;;;;;;;;;;;;;;5050313;28;19920;-74
2023/03/05 09:30:17;;;;;;;;;;;;;;;;;;5052023;28;19925;-74
2023/03/05 09:33:04;;;;;;;;;;;;;;;;;;5058926;28;19924;-75
2023/03/05 09:35:50;;;;;;;;;;;;;;;;;;5052723;28;19924;-78
2023/03/05 09:38:38;;;;;;;;;;;;;;;;;;5051545;28;19925;-79
2023/03/05 09:41:24;;;;;;;;;;;;;;;;;;5061529;28;20104;-76
2023/03/05 09:44:11;;;;;;;;;;;;;;;;;;5062026;28;19983;-76
2023/03/05 09:46:57;;;;;;;;;;;;;;;;;;5057680;28;19924;-76
2023/03/05 09:49:44;;;;;;;;;;;;;;;;;;5056355;28;19913;-76
2023/03/05 09:52:30;;;;;;;;;;;;;;;;;;5041874;28;19932;-76
2023/03/05 09:55:17;;;;;;;;;;;;;;;;;;5058926;28;19920;-76
2023/03/05 09:58:03;;;;;;;;;;;;;;;;;;5055105;28;20291;-76
2023/03/05 10:00:50;;;;;;;;;;;;;;;;;;5054728;28;20394;-77
2023/03/05 10:03:36;;;;;;;;;;;;;;;;;;5053987;28;19944;-75
2023/03/05 10:06:23;;;;;;;;;;;;;;;;;;5059702;28;19967;-77
2023/03/05 10:09:09;;;;;;;;;;;;;;;;;;5059724;28;19921;-77
2023/03/05 10:11:56;;;;;;;;;;;;;;;;;;5057652;28;20502;-77
2023/03/05 10:14:42;;;;;;;;;;;;;;;;;;5057820;28;19928;-77
2023/03/05 10:17:29;;;;;;;;;;;;;;;;;;5058577;28;20372;-77
2023/03/05 10:20:15;;;;;;;;;;;;;;;;;;5058779;28;20287;-75
2023/03/05 10:23:02;;;;;;;;;;;;;;;;;;5060639;28;19921;-77
2023/03/05 10:25:49;;;;;;;;;;;;;;;;;;5059376;28;19928;-77
2023/03/05 10:28:36;;;;;;;;;;;;;;;;;;5060397;28;19916;-78
2023/03/05 10:31:23;;;;;;;;;;;;;;;;;;5059647;28;20288;-78
2023/03/05 10:34:10;;;;;;;;;;;;;;;;;;5061605;28;19920;-78
2023/03/05 10:36:56;;;;;;;;;;;;;;;;;;5044500;28;19975;-77
2023/03/05 10:39:43;;;;;;;;;;;;;;;;;;5036847;28;19920;-78
2023/03/05 10:42:29;;;;;;;;;;;;;;;;;;5069018;28;19932;-76
2023/03/05 10:45:16;;;;;;;;;;;;;;;;;;5037684;28;19935;-78
2023/03/05 10:48:02;;;;;;;;;;;;;;;;;;5034982;28;20299;-78
2023/03/05 10:50:49;;;;;;;;;;;;;;;;;;5036261;28;19935;-78
2023/03/05 10:53:35;;;;;;;;;;;;;;;;;;5048548;28;19920;-78
2023/03/05 10:56:22;;;;;;;;;;;;;;;;;;5069033;28;19927;-78
2023/03/05 10:59:08;;;;;;;;;;;;;;;;;;5057355;28;20364;-78
2023/03/05 11:01:55;;;;;;;;;;;;;;;;;;5058866;28;19927;-77
2023/03/05 11:04:41;;;;;;;;;;;;;;;;;;5049120;28;19929;-75
2023/03/05 11:07:28;;;;;;;;;;;;;;;;;;5028174;28;19925;-74
2023/03/05 11:10:14;;;;;;;;;;;;;;;;;;5035593;28;19917;-74
2023/03/05 11:13:01;;;;;;;;;;;;;;;;;;5067959;28;19920;-73
2023/03/05 11:15:48;;;;;;;;;;;;;;;;;;5064855;28;20484;-75
2023/03/05 11:18:34;;;;;;;;;;;;;;;;;;5064631;28;19928;-74
2023/03/05 11:21:22;;;;;;;;;;;;;;;;;;5056135;28;20240;-74
2023/03/05 11:24:09;;;;;;;;;;;;;;;;;;5073161;28;19920;-73
2023/03/05 11:26:55;;;;;;;;;;;;;;;;;;5060729;28;20395;-73
2023/03/05 11:29:42;;;;;;;;;;;;;;;;;;5056145;28;20305;-74
2023/03/05 11:32:28;;;;;;;;;;;;;;;;;;5062303;28;19928;-74
2023/03/05 11:35:15;;;;;;;;;;;;;;;;;;5027944;28;19924;-73
2023/03/05 11:38:01;;;;;;;;;;;;;;;;;;5040080;28;19984;-74
2023/03/05 11:40:48;;;;;;;;;;;;;;;;;;5042827;28;19917;-73
2023/03/05 11:43:37;;;;;;;;;;;;;;;;;;5053276;28;19987;-74
2023/03/05 11:46:24;;;;;;;;;;;;;;;;;;5054226;28;20030;-74
2023/03/05 11:49:10;;;;;;;;;;;;;;;;;;5058765;28;19921;-73
2023/03/05 11:51:56;;;;;;;;;;;;;;;;;;5047573;28;20701;-73
2023/03/05 11:54:43;;;;;;;;;;;;;;;;;;5059650;28;19913;-73
2023/03/05 11:57:29;;;;;;;;;;;;;;;;;;5052483;28;19921;-75
2023/03/05 12:00:16;;;;;;;;;;;;;;;;;;5053899;28;20321;-74
2023/03/05 12:03:02;;;;;;;;;;;;;;;;;;5056670;28;19923;-73
2023/03/05 12:05:49;;;;;;;;;;;;;;;;;;5027744;28;19931;-74
2023/03/05 12:08:35;;;;;;;;;;;;;;;;;;5053052;28;19917;-74
2023/03/05 12:11:24;;;;;;;;;;;;;;;;;;5044017;28;19921;-75
2023/03/05 12:14:10;;;;;;;;;;;;;;;;;;5060339;28;19927;-73
2023/03/05 12:16:57;;;;;;;;;;;;;;;;;;5050661;28;19924;-74
2023/03/05 12:19:43;;;;;;;;;;;;;;;;;;5056995;28;19928;-74
2023/03/05 12:22:30;;;;;;;;;;;;;;;;;;5057324;28;19931;-74
2023/03/05 12:25:16;;;;;;;;;;;;;;;;;;5056138;28;20264;-74
2023/03/05 12:28:03;;;;;;;;;;;;;;;;;;5054534;28;19920;-74
2023/03/05 12:30:49;;;;;;;;;;;;;;;;;;5056935;28;19920;-74
2023/03/05 12:33:36;;;;;;;;;;;;;;;;;;5056524;28;19928;-74
2023/03/05 12:36:22;;;;;;;;;;;;;;;;;;5055997;28;19917;-74
2023/03/05 12:39:09;;;;;;;;;;;;;;;;;;5039023;28;19928;-74
2023/03/05 12:41:55;;;;;;;;;;;;;;;;;;5056133;28;19923;-74
2023/03/05 12:44:42;;;;;;;;;;;;;;;;;;5044411;28;19952;-74
2023/03/05 12:47:28;;;;;;;;;;;;;;;;;;5039753;28;19917;-73
2023/03/05 12:50:15;;;;;;;;;;;;;;;;;;5038942;28;19923;-73
2023/03/05 12:53:02;;;;;;;;;;;;;;;;;;5049544;28;19916;-73
2023/03/05 12:55:48;;;;;;;;;;;;;;;;;;5060620;28;19920;-74
2023/03/05 12:58:35;;;;;;;;;;;;;;;;;;5053828;28;20390;-73
2023/03/05 13:01:21;;;;;;;;;;;;;;;;;;5070735;28;19916;-74
2023/03/05 13:04:10;;;;;;;;;;;;;;;;;;5070075;28;19932;-74
2023/03/05 13:06:56;;;;;;;;;;;;;;;;;;5065065;28;20300;-75
2023/03/05 13:09:43;;;;;;;;;;;;;;;;;;5052995;28;19920;-74
2023/03/05 13:12:29;;;;;;;;;;;;;;;;;;5059372;28;19939;-74
2023/03/05 13:15:16;;;;;;;;;;;;;;;;;;5061081;28;19936;-74
2023/03/05 13:18:06;;;;;;;;;;;;;;;;;;5057800;28;19913;-74
2023/03/05 13:20:55;;;;;;;;;;;;;;;;;;5066185;28;19924;-74
2023/03/05 13:23:41;;;;;;;;;;;;;;;;;;5060793;28;19921;-74
2023/03/05 13:26:28;;;;;;;;;;;;;;;;;;5071146;28;19930;-74
2023/03/05 13:29:14;;;;;;;;;;;;;;;;;;5061629;28;20372;-74
2023/03/05 13:32:01;;;;;;;;;;;;;;;;;;5056454;28;19923;-73
2023/03/05 13:34:47;;;;;;;;;;;;;;;;;;5076952;28;19920;-73
2023/03/05 13:37:34;;;;;;;;;;;;;;;;;;5058963;28;19920;-74
2023/03/05 13:40:20;;;;;;;;;;;;;;;;;;5055275;28;20300;-75
2023/03/05 13:43:07;;;;;;;;;;;;;;;;;;5060894;28;19927;-73
2023/03/05 13:45:55;;;;;;;;;;;;;;;;;;5055717;28;19963;-75
2023/03/05 13:48:41;;;;;;;;;;;;;;;;;;5055083;28;19924;-74
2023/03/05 13:51:28;;;;;;;;;;;;;;;;;;5054863;28;19924;-75
2023/03/05 13:54:14;;;;;;;;;;;;;;;;;;5057363;28;19921;-74
2023/03/05 13:57:01;;;;;;;;;;;;;;;;;;5056817;28;19920;-74
2023/03/05 13:59:47;;;;;;;;;;;;;;;;;;5056561;28;19950;-74
2023/03/05 14:02:34;;;;;;;;;;;;;;;;;;5059666;28;19931;-74
2023/03/05 14:05:20;;;;;;;;;;;;;;;;;;5060145;28;19941;-76
2023/03/05 14:08:07;;;;;;;;;;;;;;;;;;5055115;28;19939;-75
2023/03/05 14:10:53;;;;;;;;;;;;;;;;;;5056901;28;19928;-75
2023/03/05 14:13:40;;;;;;;;;;;;;;;;;;5056816;28;19925;-75
2023/03/05 14:16:31;;;;;;;;;;;;;;;;;;5052674;28;20386;-75
2023/03/05 14:19:17;;;;;;;;;;;;;;;;;;5061061;28;19934;-76
2023/03/05 14:22:04;;;;;;;;;;;;;;;;;;5057314;28;19942;-75
2023/03/05 14:24:50;;;;;;;;;;;;;;;;;;5054802;28;19921;-76
2023/03/05 14:27:37;;;;;;;;;;;;;;;;;;5056975;28;20299;-76
2023/03/05 14:30:23;;;;;;;;;;;;;;;;;;5055879;28;19935;-75
2023/03/05 14:33:10;;;;;;;;;;;;;;;;;;5057305;28;19921;-76
2023/03/05 14:35:56;;;;;;;;;;;;;;;;;;5060501;28;19924;-76
2023/03/05 14:38:44;;;;;;;;;;;;;;;;;;5054589;28;19931;-76
2023/03/05 14:41:31;;;;;;;;;;;;;;;;;;5053768;28;19928;-77
2023/03/05 14:44:18;;;;;;;;;;;;;;;;;;5056267;28;19917;-76
2023/03/05 14:47:05;;;;;;;;;;;;;;;;;;5050924;28;19934;-76
2023/03/05 14:49:52;;;;;;;;;;;;;;;;;;5060157;28;19920;-76
2023/03/05 14:52:38;;;;;;;;;;;;;;;;;;5055542;28;20280;-76
2023/03/05 14:55:25;;;;;;;;;;;;;;;;;;5041616;28;20284;-75
2023/03/05 14:58:11;;;;;;;;;;;;;;;;;;5056874;28;19916;-75
2023/03/05 15:00:58;;;;;;;;;;;;;;;;;;5054278;28;19932;-73
2023/03/05 15:03:44;;;;;;;;;;;;;;;;;;5045979;28;19943;-76
2023/03/05 15:06:31;;;;;;;;;;;;;;;;;;5056062;28;19951;-76
2023/03/05 15:09:19;;;;;;;;;;;;;;;;;;5059052;28;19931;-76
2023/03/05 15:12:05;;;;;;;;;;;;;;;;;;5054440;28;19967;-76
2023/03/05 15:14:52;;;;;;;;;;;;;;;;;;5056920;28;20505;-76
2023/03/05 15:17:38;;;;;;;;;;;;;;;;;;5041900;28;19925;-76
2023/03/05 15:20:25;;;;;;;;;;;;;;;;;;5051824;28;19921;-75
2023/03/05 15:23:11;;;;;;;;;;;;;;;;;;5056163;28;19920;-75
2023/03/05 15:26:02;;;;;;;;;;;;;;;;;;5054934;28;19938;-76
2023/03/05 15:28:49;;;;;;;;;;;;;;;;;;5058881;28;19916;-76
2023/03/05 15:31:37;;;;;;;;;;;;;;;;;;5043574;28;20406;-76
2023/03/05 15:34:23;;;;;;;;;;;;;;;;;;5056830;28;19936;-76
2023/03/05 15:37:10;;;;;;;;;;;;;;;;;;5053357;28;19916;-76
2023/03/05 15:39:56;;;;;;;;;;;;;;;;;;5058578;28;19927;-75
2023/03/05 15:42:43;;;;;;;;;;;;;;;;;;5055704;28;19916;-75
2023/03/05 15:45:30;;;;;;;;;;;;;;;;;;5044936;28;19924;-75
2023/03/05 15:48:16;;;;;;;;;;;;;;;;;;5051299;28;19924;-74
2023/03/05 15:51:03;;;;;;;;;;;;;;;;;;5060034;28;19920;-75
2023/03/05 15:53:49;;;;;;;;;;;;;;;;;;5057270;28;20295;-75
2023/03/05 15:56:36;;;;;;;;;;;;;;;;;;5056329;28;19936;-75
2023/03/05 15:59:23;;;;;;;;;;;;;;;;;;5058447;28;19925;-74
2023/03/05 16:02:10;;;;;;;;;;;;;;;;;;5058099;28;19927;-74
2023/03/05 16:04:56;;;;;;;;;;;;;;;;;;5060840;28;20547;-74
2023/03/05 16:07:49;;;;;;;;;;;;;;;;;;5056324;28;19924;-77
2023/03/05 16:10:37;;;;;;;;;;;;;;;;;;5039478;28;19920;-75
2023/03/05 16:13:26;;;;;;;;;;;;;;;;;;5056731;28;19927;-74
2023/03/05 16:16:13;;;;;;;;;;;;;;;;;;5059111;28;19920;-75
2023/03/05 16:19:00;;;;;;;;;;;;;;;;;;5060879;28;20003;-75
2023/03/05 16:21:46;;;;;;;;;;;;;;;;;;5041719;28;19923;-74
2023/03/05 16:24:33;;;;;;;;;;;;;;;;;;5057066;28;20394;-74
2023/03/05 16:27:19;;;;;;;;;;;;;;;;;;5055517;28;19924;-75
2023/03/05 16:30:06;;;;;;;;;;;;;;;;;;5058627;28;20402;-75
2023/03/05 16:32:52;;;;;;;;;;;;;;;;;;5058521;28;20395;-77
2023/03/05 16:35:39;;;;;;;;;;;;;;;;;;5050770;28;19994;-76
2023/03/05 16:38:25;;;;;;;;;;;;;;;;;;5055934;28;19928;-76
2023/03/05 16:41:12;;;;;;;;;;;;;;;;;;5053410;28;19925;-76
2023/03/05 16:43:59;;;;;;;;;;;;;;;;;;5053321;28;19925;-76
2023/03/05 16:46:49;;;;;;;;;;;;;;;;;;5056327;28;19946;-76
2023/03/05 16:49:35;;;;;;;;;;;;;;;;;;5059729;28;19920;-77
2023/03/05 16:52:22;;;;;;;;;;;;;;;;;;5056353;28;19917;-77
2023/03/05 16:55:08;;;;;;;;;;;;;;;;;;5059048;28;19931;-77
2023/03/05 16:57:55;;;;;;;;;;;;;;;;;;5059321;28;20477;-77
2023/03/05 17:00:41;;;;;;;;;;;;;;;;;;5061591;28;19928;-77
2023/03/05 17:03:28;;;;;;;;;;;;;;;;;;5057652;28;19916;-77
2023/03/05 17:06:14;;;;;;;;;;;;;;;;;;5059195;28;19924;-77
2023/03/05 17:09:01;;;;;;;;;;;;;;;;;;5051798;28;19924;-77
2023/03/05 17:11:48;;;;;;;;;;;;;;;;;;5054728;28;19924;-78
2023/03/05 17:14:34;;;;;;;;;;;;;;;;;;5055526;28;19929;-75
2023/03/05 17:17:21;;;;;;;;;;;;;;;;;;5056169;28;19923;-77
2023/03/05 17:20:07;;;;;;;;;;;;;;;;;;5051216;28;20413;-77
2023/03/05 17:22:54;;;;;;;;;;;;;;;;;;5057567;28;19921;-80
2023/03/05 17:25:40;;;;;;;;;;;;;;;;;;5056265;28;21246;-74
2023/03/05 17:28:27;;;;;;;;;;;;;;;;;;5055236;28;19927;-77
2023/03/05 17:31:13;;;;;;;;;;;;;;;;;;5058979;28;19940;-77
2023/03/05 17:34:00;;;;;;;;;;;;;;;;;;5049997;28;19936;-81
2023/03/05 17:36:49;;;;;;;;;;;;;;;;;;5060473;28;19933;-77
2023/03/05 17:39:35;;;;;;;;;;;;;;;;;;5064119;28;19917;-80
2023/03/05 17:42:22;;;;;;;;;;;;;;;;;;5060414;28;19917;-78
2023/03/05 17:45:10;;;;;;;;;;;;;;;;;;5082407;28;19921;-79
2023/03/05 17:47:56;;;;;;;;;;;;;;;;;;5058560;28;19929;-78
2023/03/05 17:50:48;;;;;;;;;;;;;;;;;;5058366;28;19917;-84
2023/03/05 17:53:39;;;;;;;;;;;;;;;;;;5021994;28;19927;-87
2023/03/05 17:56:25;;;;;;;;;;;;;;;;;;5043767;28;20290;-80
2023/03/05 17:59:12;;;;;;;;;;;;;;;;;;5043018;28;19921;-76
2023/03/05 18:01:58;;;;;;;;;;;;;;;;;;5026482;28;20495;-75
2023/03/05 18:04:46;;;;;;;;;;;;;;;;;;5043384;28;19921;-74
2023/03/05 18:07:33;;;;;;;;;;;;;;;;;;5060977;28;19924;-74
2023/03/05 18:10:19;;;;;;;;;;;;;;;;;;5051967;28;19921;-74
2023/03/05 18:13:08;;;;;;;;;;;;;;;;;;5035564;28;20292;-74
2023/03/05 18:15:55;;;;;;;;;;;;;;;;;;5030980;28;19935;-74
2023/03/05 18:18:41;;;;;;;;;;;;;;;;;;5032212;28;19932;-74
2023/03/05 18:21:28;;;;;;;;;;;;;;;;;;5045954;28;19924;-74
2023/03/05 18:24:14;;;;;;;;;;;;;;;;;;5030454;28;19922;-75
2023/03/05 18:27:01;;;;;;;;;;;;;;;;;;5016355;28;20415;-76
2023/03/05 18:29:49;;;;;;;;;;;;;;;;;;5043020;28;19927;-76
2023/03/05 18:32:35;;;;;;;;;;;;;;;;;;5036911;28;19921;-81
2023/03/05 18:35:22;;;;;;;;;;;;;;;;;;5033977;28;19925;-79
2023/03/05 18:38:08;;;;;;;;;;;;;;;;;;5047651;28;19927;-80
2023/03/05 18:40:55;;;;;;;;;;;;;;;;;;5038024;28;19917;-80
2023/03/05 18:43:42;;;;;;;;;;;;;;;;;;5038806;28;19928;-78
2023/03/05 18:46:28;;;;;;;;;;;;;;;;;;5035148;28;20489;-80
2023/03/05 18:49:15;;;;;;;;;;;;;;;;;;5039377;28;19917;-79
2023/03/05 18:52:01;;;;;;;;;;;;;;;;;;5031060;28;20492;-79
2023/03/05 18:54:48;;;;;;;;;;;;;;;;;;5038523;28;19928;-80
2023/03/05 18:57:34;;;;;;;;;;;;;;;;;;5015645;28;20376;-80